sensor_id;sensor_type;location;lat;lon;timestamp;P1;durP1;ratioP1;P2;durP2;ratioP2
78960;SDS011;68362;45.970;12.646;2023-07-29T00:00:19;4.72;;;3.65;;
78960;SDS011;68362;45.970;12.646;2023-07-29T00:01:41;3.67;;;3.38;;
78960;SDS011;68362;45.970;12.646;2023-07-29T00:02:44;4.45;;;3.20;;
78960;SDS011;68362;45.970;12.646;2023-07-29T00:03:46;5.68;;;3.97;;
78960;SDS011;68362;45.970;12.646;2023-07-29T00:04:48;4.97;;;3.25;;
78960;SDS011;68362;45.970;12.646;2023-07-29T00:05:50;5.65;;;3.53;;
78960;SDS011;68362;45.970;12.646;2023-07-29T00:06:52;4.60;;;3.63;;
78960;SDS011;68362;45.970;12.646;2023-07-29T00:07:55;4.97;;;3.50;;
78960;SDS011;68362;45.970;12.646;2023-07-29T00:08:57;3.67;;;3.33;;
78960;SDS011;68362;45.970;12.646;2023-07-29T00:09:59;3.92;;;3.33;;
78960;SDS011;68362;45.970;12.646;2023-07-29T00:11:01;3.42;;;3.13;;
78960;SDS011;68362;45.970;12.646;2023-07-29T00:12:03;5.40;;;3.47;;
78960;SDS011;68362;45.970;12.646;2023-07-29T00:13:06;4.88;;;3.90;;
78960;SDS011;68362;45.970;12.646;2023-07-29T00:15:11;5.35;;;3.53;;
78960;SDS011;68362;45.970;12.646;2023-07-29T00:17:17;5.65;;;3.13;;
78960;SDS011;68362;45.970;12.646;2023-07-29T00:18:19;3.63;;;3.03;;
78960;SDS011;68362;45.970;12.646;2023-07-29T00:19:21;3.72;;;3.22;;
78960;SDS011;68362;45.970;12.646;2023-07-29T00:20:25;5.90;;;3.30;;
78960;SDS011;68362;45.970;12.646;2023-07-29T00:21:27;5.72;;;3.58;;
78960;SDS011;68362;45.970;12.646;2023-07-29T00:22:29;4.38;;;3.17;;
78960;SDS011;68362;45.970;12.646;2023-07-29T00:23:31;6.32;;;3.92;;
78960;SDS011;68362;45.970;12.646;2023-07-29T00:24:34;4.05;;;3.65;;
78960;SDS011;68362;45.970;12.646;2023-07-29T00:25:36;4.28;;;2.97;;
78960;SDS011;68362;45.970;12.646;2023-07-29T00:26:38;4.97;;;3.42;;
78960;SDS011;68362;45.970;12.646;2023-07-29T00:27:40;4.18;;;3.40;;
78960;SDS011;68362;45.970;12.646;2023-07-29T00:28:42;3.03;;;2.58;;
78960;SDS011;68362;45.970;12.646;2023-07-29T00:29:44;7.32;;;5.05;;
78960;SDS011;68362;45.970;12.646;2023-07-29T00:30:46;4.47;;;3.40;;
78960;SDS011;68362;45.970;12.646;2023-07-29T00:31:48;5.20;;;3.50;;
78960;SDS011;68362;45.970;12.646;2023-07-29T00:32:51;4.25;;;3.28;;
78960;SDS011;68362;45.970;12.646;2023-07-29T00:33:53;4.55;;;2.80;;
78960;SDS011;68362;45.970;12.646;2023-07-29T00:34:55;4.95;;;3.35;;
78960;SDS011;68362;45.970;12.646;2023-07-29T00:35:57;3.92;;;3.40;;
78960;SDS011;68362;45.970;12.646;2023-07-29T00:37:03;3.92;;;3.55;;
78960;SDS011;68362;45.970;12.646;2023-07-29T00:38:07;4.13;;;3.60;;
78960;SDS011;68362;45.970;12.646;2023-07-29T00:39:09;4.32;;;3.35;;
78960;SDS011;68362;45.970;12.646;2023-07-29T00:40:15;3.72;;;3.42;;
78960;SDS011;68362;45.970;12.646;2023-07-29T00:41:21;4.38;;;3.20;;
78960;SDS011;68362;45.970;12.646;2023-07-29T00:42:24;6.80;;;3.63;;
78960;SDS011;68362;45.970;12.646;2023-07-29T00:43:26;5.10;;;3.63;;
78960;SDS011;68362;45.970;12.646;2023-07-29T00:44:28;3.72;;;3.15;;
78960;SDS011;68362;45.970;12.646;2023-07-29T00:45:33;3.42;;;3.13;;
78960;SDS011;68362;45.970;12.646;2023-07-29T00:47:39;3.72;;;3.00;;
78960;SDS011;68362;45.970;12.646;2023-07-29T00:48:43;3.95;;;3.22;;
78960;SDS011;68362;45.970;12.646;2023-07-29T00:49:45;5.55;;;3.70;;
78960;SDS011;68362;45.970;12.646;2023-07-29T00:50:47;3.50;;;3.20;;
78960;SDS011;68362;45.970;12.646;2023-07-29T00:51:50;6.18;;;3.88;;
78960;SDS011;68362;45.970;12.646;2023-07-29T00:52:53;6.70;;;3.83;;
78960;SDS011;68362;45.970;12.646;2023-07-29T00:53:56;4.25;;;3.47;;
78960;SDS011;68362;45.970;12.646;2023-07-29T00:54:58;5.05;;;3.90;;
78960;SDS011;68362;45.970;12.646;2023-07-29T00:56:00;3.90;;;3.60;;
78960;SDS011;68362;45.970;12.646;2023-07-29T00:57:02;4.03;;;3.15;;
78960;SDS011;68362;45.970;12.646;2023-07-29T00:59:07;4.18;;;3.08;;
78960;SDS011;68362;45.970;12.646;2023-07-29T01:00:09;4.63;;;3.90;;
78960;SDS011;68362;45.970;12.646;2023-07-29T01:01:12;5.70;;;4.05;;
78960;SDS011;68362;45.970;12.646;2023-07-29T01:02:14;5.43;;;3.45;;
78960;SDS011;68362;45.970;12.646;2023-07-29T01:03:17;4.80;;;3.15;;
78960;SDS011;68362;45.970;12.646;2023-07-29T01:04:19;5.45;;;3.55;;
78960;SDS011;68362;45.970;12.646;2023-07-29T01:05:21;4.07;;;3.67;;
78960;SDS011;68362;45.970;12.646;2023-07-29T01:11:07;5.65;;;3.78;;
78960;SDS011;68362;45.970;12.646;2023-07-29T01:12:35;5.25;;;3.67;;
78960;SDS011;68362;45.970;12.646;2023-07-29T01:13:48;5.32;;;3.65;;
78960;SDS011;68362;45.970;12.646;2023-07-29T01:15:12;4.20;;;3.80;;
78960;SDS011;68362;45.970;12.646;2023-07-29T01:16:23;4.07;;;2.88;;
78960;SDS011;68362;45.970;12.646;2023-07-29T01:17:37;5.72;;;3.80;;
78960;SDS011;68362;45.970;12.646;2023-07-29T01:19:01;4.32;;;3.92;;
78960;SDS011;68362;45.970;12.646;2023-07-29T01:20:11;3.42;;;3.13;;
78960;SDS011;68362;45.970;12.646;2023-07-29T01:21:17;6.22;;;3.67;;
78960;SDS011;68362;45.970;12.646;2023-07-29T01:23:27;8.10;;;3.55;;
78960;SDS011;68362;45.970;12.646;2023-07-29T01:24:31;4.63;;;3.92;;
78960;SDS011;68362;45.970;12.646;2023-07-29T01:25:33;5.18;;;3.50;;
78960;SDS011;68362;45.970;12.646;2023-07-29T01:26:35;7.28;;;4.25;;
78960;SDS011;68362;45.970;12.646;2023-07-29T01:27:38;5.85;;;3.28;;
78960;SDS011;68362;45.970;12.646;2023-07-29T01:28:40;7.15;;;3.75;;
78960;SDS011;68362;45.970;12.646;2023-07-29T01:29:43;3.78;;;3.25;;
78960;SDS011;68362;45.970;12.646;2023-07-29T01:30:45;4.30;;;3.90;;
78960;SDS011;68362;45.970;12.646;2023-07-29T01:31:51;5.82;;;3.65;;
78960;SDS011;68362;45.970;12.646;2023-07-29T01:34:29;4.28;;;3.70;;
78960;SDS011;68362;45.970;12.646;2023-07-29T01:36:58;5.82;;;3.67;;
78960;SDS011;68362;45.970;12.646;2023-07-29T01:38:09;8.13;;;4.45;;
78960;SDS011;68362;45.970;12.646;2023-07-29T01:39:18;5.47;;;3.38;;
78960;SDS011;68362;45.970;12.646;2023-07-29T01:40:24;4.35;;;3.78;;
78960;SDS011;68362;45.970;12.646;2023-07-29T01:41:29;6.15;;;3.95;;
78960;SDS011;68362;45.970;12.646;2023-07-29T01:42:31;6.43;;;3.33;;
78960;SDS011;68362;45.970;12.646;2023-07-29T01:43:34;5.65;;;3.55;;
78960;SDS011;68362;45.970;12.646;2023-07-29T01:44:40;4.82;;;3.15;;
78960;SDS011;68362;45.970;12.646;2023-07-29T01:45:44;5.25;;;3.42;;
78960;SDS011;68362;45.970;12.646;2023-07-29T01:46:46;3.60;;;3.30;;
78960;SDS011;68362;45.970;12.646;2023-07-29T01:48:51;6.72;;;2.92;;
78960;SDS011;68362;45.970;12.646;2023-07-29T01:49:53;9.13;;;3.25;;
78960;SDS011;68362;45.970;12.646;2023-07-29T01:50:55;5.38;;;4.60;;
78960;SDS011;68362;45.970;12.646;2023-07-29T01:51:57;4.97;;;3.70;;
78960;SDS011;68362;45.970;12.646;2023-07-29T01:52:59;5.95;;;3.35;;
78960;SDS011;68362;45.970;12.646;2023-07-29T01:54:02;7.63;;;3.90;;
78960;SDS011;68362;45.970;12.646;2023-07-29T01:55:04;8.13;;;3.97;;
78960;SDS011;68362;45.970;12.646;2023-07-29T01:57:09;5.15;;;3.22;;
78960;SDS011;68362;45.970;12.646;2023-07-29T01:58:11;5.25;;;3.35;;
78960;SDS011;68362;45.970;12.646;2023-07-29T01:59:13;3.95;;;3.50;;
78960;SDS011;68362;45.970;12.646;2023-07-29T02:00:18;6.35;;;3.53;;
78960;SDS011;68362;45.970;12.646;2023-07-29T02:01:21;4.82;;;3.47;;
78960;SDS011;68362;45.970;12.646;2023-07-29T02:02:23;5.38;;;3.05;;
78960;SDS011;68362;45.970;12.646;2023-07-29T02:03:25;10.57;;;3.90;;
78960;SDS011;68362;45.970;12.646;2023-07-29T02:04:27;4.65;;;3.45;;
78960;SDS011;68362;45.970;12.646;2023-07-29T02:05:29;3.95;;;2.90;;
78960;SDS011;68362;45.970;12.646;2023-07-29T02:06:31;6.20;;;3.60;;
78960;SDS011;68362;45.970;12.646;2023-07-29T02:07:34;4.32;;;3.30;;
78960;SDS011;68362;45.970;12.646;2023-07-29T02:08:36;7.53;;;3.42;;
78960;SDS011;68362;45.970;12.646;2023-07-29T02:09:38;4.28;;;3.50;;
78960;SDS011;68362;45.970;12.646;2023-07-29T02:10:40;4.38;;;3.03;;
78960;SDS011;68362;45.970;12.646;2023-07-29T02:11:44;3.78;;;3.22;;
78960;SDS011;68362;45.970;12.646;2023-07-29T02:12:46;4.90;;;3.70;;
78960;SDS011;68362;45.970;12.646;2023-07-29T02:13:48;6.72;;;4.03;;
78960;SDS011;68362;45.970;12.646;2023-07-29T02:14:50;5.82;;;4.25;;
78960;SDS011;68362;45.970;12.646;2023-07-29T02:15:52;4.35;;;3.72;;
78960;SDS011;68362;45.970;12.646;2023-07-29T02:16:55;6.07;;;3.88;;
78960;SDS011;68362;45.970;12.646;2023-07-29T02:17:57;4.88;;;3.40;;
78960;SDS011;68362;45.970;12.646;2023-07-29T02:19:01;3.33;;;2.95;;
78960;SDS011;68362;45.970;12.646;2023-07-29T02:20:03;4.15;;;3.53;;
78960;SDS011;68362;45.970;12.646;2023-07-29T02:21:06;6.55;;;3.45;;
78960;SDS011;68362;45.970;12.646;2023-07-29T02:22:09;5.68;;;3.47;;
78960;SDS011;68362;45.970;12.646;2023-07-29T02:23:15;4.70;;;3.58;;
78960;SDS011;68362;45.970;12.646;2023-07-29T02:24:18;4.40;;;3.38;;
78960;SDS011;68362;45.970;12.646;2023-07-29T02:25:21;4.60;;;3.63;;
78960;SDS011;68362;45.970;12.646;2023-07-29T02:26:23;4.32;;;3.70;;
78960;SDS011;68362;45.970;12.646;2023-07-29T02:27:25;5.07;;;4.50;;
78960;SDS011;68362;45.970;12.646;2023-07-29T02:28:28;3.85;;;3.13;;
78960;SDS011;68362;45.970;12.646;2023-07-29T02:29:31;4.97;;;3.97;;
78960;SDS011;68362;45.970;12.646;2023-07-29T02:30:34;6.10;;;4.20;;
78960;SDS011;68362;45.970;12.646;2023-07-29T02:31:36;6.00;;;3.75;;
78960;SDS011;68362;45.970;12.646;2023-07-29T02:32:39;3.95;;;3.55;;
78960;SDS011;68362;45.970;12.646;2023-07-29T02:33:42;6.22;;;4.30;;
78960;SDS011;68362;45.970;12.646;2023-07-29T02:34:44;4.72;;;3.72;;
78960;SDS011;68362;45.970;12.646;2023-07-29T02:35:46;7.05;;;4.07;;
78960;SDS011;68362;45.970;12.646;2023-07-29T02:36:48;4.78;;;3.38;;
78960;SDS011;68362;45.970;12.646;2023-07-29T02:37:51;7.57;;;3.42;;
78960;SDS011;68362;45.970;12.646;2023-07-29T02:38:53;5.32;;;3.03;;
78960;SDS011;68362;45.970;12.646;2023-07-29T02:39:55;5.32;;;3.45;;
78960;SDS011;68362;45.970;12.646;2023-07-29T02:40:57;5.15;;;3.53;;
78960;SDS011;68362;45.970;12.646;2023-07-29T02:41:59;4.00;;;3.47;;
78960;SDS011;68362;45.970;12.646;2023-07-29T02:43:01;4.05;;;3.30;;
78960;SDS011;68362;45.970;12.646;2023-07-29T02:44:04;3.88;;;3.38;;
78960;SDS011;68362;45.970;12.646;2023-07-29T02:45:07;6.63;;;3.88;;
78960;SDS011;68362;45.970;12.646;2023-07-29T02:46:11;5.65;;;3.50;;
78960;SDS011;68362;45.970;12.646;2023-07-29T02:47:13;5.85;;;3.60;;
78960;SDS011;68362;45.970;12.646;2023-07-29T02:48:15;4.10;;;3.35;;
78960;SDS011;68362;45.970;12.646;2023-07-29T02:49:17;4.40;;;3.20;;
78960;SDS011;68362;45.970;12.646;2023-07-29T02:50:20;8.77;;;4.60;;
78960;SDS011;68362;45.970;12.646;2023-07-29T02:51:22;4.95;;;4.00;;
78960;SDS011;68362;45.970;12.646;2023-07-29T02:52:24;5.82;;;4.55;;
78960;SDS011;68362;45.970;12.646;2023-07-29T02:53:26;5.10;;;4.00;;
78960;SDS011;68362;45.970;12.646;2023-07-29T02:54:28;4.95;;;3.60;;
78960;SDS011;68362;45.970;12.646;2023-07-29T02:55:30;4.57;;;3.50;;
78960;SDS011;68362;45.970;12.646;2023-07-29T02:56:32;5.47;;;4.30;;
78960;SDS011;68362;45.970;12.646;2023-07-29T02:57:35;4.40;;;3.67;;
78960;SDS011;68362;45.970;12.646;2023-07-29T02:58:37;4.53;;;3.35;;
78960;SDS011;68362;45.970;12.646;2023-07-29T02:59:39;5.47;;;3.67;;
78960;SDS011;68362;45.970;12.646;2023-07-29T03:00:41;8.85;;;4.78;;
78960;SDS011;68362;45.970;12.646;2023-07-29T03:01:45;4.10;;;3.70;;
78960;SDS011;68362;45.970;12.646;2023-07-29T03:02:47;5.65;;;3.63;;
78960;SDS011;68362;45.970;12.646;2023-07-29T03:03:49;6.30;;;3.83;;
78960;SDS011;68362;45.970;12.646;2023-07-29T03:04:51;3.63;;;3.33;;
78960;SDS011;68362;45.970;12.646;2023-07-29T03:06:00;4.78;;;3.58;;
78960;SDS011;68362;45.970;12.646;2023-07-29T03:07:04;4.25;;;3.83;;
78960;SDS011;68362;45.970;12.646;2023-07-29T03:08:06;4.30;;;3.53;;
78960;SDS011;68362;45.970;12.646;2023-07-29T03:09:08;4.85;;;3.75;;
78960;SDS011;68362;45.970;12.646;2023-07-29T03:10:11;4.88;;;3.80;;
78960;SDS011;68362;45.970;12.646;2023-07-29T03:11:14;5.68;;;4.60;;
78960;SDS011;68362;45.970;12.646;2023-07-29T03:12:17;6.20;;;4.00;;
78960;SDS011;68362;45.970;12.646;2023-07-29T03:13:19;5.05;;;3.75;;
78960;SDS011;68362;45.970;12.646;2023-07-29T03:14:21;5.70;;;3.60;;
78960;SDS011;68362;45.970;12.646;2023-07-29T03:15:24;6.38;;;4.13;;
78960;SDS011;68362;45.970;12.646;2023-07-29T03:16:26;5.63;;;4.03;;
78960;SDS011;68362;45.970;12.646;2023-07-29T03:17:28;8.32;;;4.93;;
78960;SDS011;68362;45.970;12.646;2023-07-29T03:18:30;4.38;;;3.65;;
78960;SDS011;68362;45.970;12.646;2023-07-29T03:19:33;5.68;;;3.72;;
78960;SDS011;68362;45.970;12.646;2023-07-29T03:20:35;4.57;;;4.15;;
78960;SDS011;68362;45.970;12.646;2023-07-29T03:21:37;8.50;;;5.13;;
78960;SDS011;68362;45.970;12.646;2023-07-29T03:22:39;7.00;;;4.95;;
78960;SDS011;68362;45.970;12.646;2023-07-29T03:23:41;6.93;;;4.28;;
78960;SDS011;68362;45.970;12.646;2023-07-29T03:24:44;6.35;;;4.90;;
78960;SDS011;68362;45.970;12.646;2023-07-29T03:25:48;4.50;;;3.85;;
78960;SDS011;68362;45.970;12.646;2023-07-29T03:26:51;5.75;;;4.40;;
78960;SDS011;68362;45.970;12.646;2023-07-29T03:27:53;7.80;;;4.47;;
78960;SDS011;68362;45.970;12.646;2023-07-29T03:28:55;4.15;;;3.75;;
78960;SDS011;68362;45.970;12.646;2023-07-29T03:29:57;4.97;;;3.97;;
78960;SDS011;68362;45.970;12.646;2023-07-29T03:30:59;4.68;;;4.10;;
78960;SDS011;68362;45.970;12.646;2023-07-29T03:32:01;4.60;;;4.13;;
78960;SDS011;68362;45.970;12.646;2023-07-29T03:33:04;5.00;;;3.42;;
78960;SDS011;68362;45.970;12.646;2023-07-29T03:34:07;6.40;;;4.18;;
78960;SDS011;68362;45.970;12.646;2023-07-29T03:35:09;4.65;;;4.00;;
78960;SDS011;68362;45.970;12.646;2023-07-29T03:36:11;5.88;;;4.70;;
78960;SDS011;68362;45.970;12.646;2023-07-29T03:37:13;5.13;;;4.00;;
78960;SDS011;68362;45.970;12.646;2023-07-29T03:38:15;5.70;;;3.25;;
78960;SDS011;68362;45.970;12.646;2023-07-29T03:39:17;3.65;;;3.05;;
78960;SDS011;68362;45.970;12.646;2023-07-29T03:40:20;5.13;;;3.78;;
78960;SDS011;68362;45.970;12.646;2023-07-29T03:41:24;5.40;;;3.75;;
78960;SDS011;68362;45.970;12.646;2023-07-29T03:42:27;5.57;;;3.83;;
78960;SDS011;68362;45.970;12.646;2023-07-29T03:43:29;4.32;;;3.33;;
78960;SDS011;68362;45.970;12.646;2023-07-29T03:44:31;5.53;;;3.90;;
78960;SDS011;68362;45.970;12.646;2023-07-29T03:45:34;5.35;;;3.75;;
78960;SDS011;68362;45.970;12.646;2023-07-29T03:46:36;4.53;;;3.80;;
78960;SDS011;68362;45.970;12.646;2023-07-29T03:47:39;5.57;;;4.28;;
78960;SDS011;68362;45.970;12.646;2023-07-29T03:48:41;4.32;;;3.47;;
78960;SDS011;68362;45.970;12.646;2023-07-29T03:49:43;4.18;;;3.60;;
78960;SDS011;68362;45.970;12.646;2023-07-29T03:50:45;3.55;;;3.25;;
78960;SDS011;68362;45.970;12.646;2023-07-29T03:51:47;5.68;;;3.83;;
78960;SDS011;68362;45.970;12.646;2023-07-29T03:52:50;3.40;;;3.10;;
78960;SDS011;68362;45.970;12.646;2023-07-29T03:53:52;6.50;;;3.20;;
78960;SDS011;68362;45.970;12.646;2023-07-29T03:54:54;6.97;;;4.03;;
78960;SDS011;68362;45.970;12.646;2023-07-29T03:55:56;6.97;;;3.60;;
78960;SDS011;68362;45.970;12.646;2023-07-29T03:56:58;4.47;;;3.25;;
78960;SDS011;68362;45.970;12.646;2023-07-29T03:58:00;4.63;;;3.58;;
78960;SDS011;68362;45.970;12.646;2023-07-29T03:59:03;9.95;;;3.67;;
78960;SDS011;68362;45.970;12.646;2023-07-29T04:00:08;4.95;;;3.30;;
78960;SDS011;68362;45.970;12.646;2023-07-29T04:01:12;3.95;;;3.35;;
78960;SDS011;68362;45.970;12.646;2023-07-29T04:02:15;5.35;;;3.92;;
78960;SDS011;68362;45.970;12.646;2023-07-29T04:03:17;4.50;;;3.45;;
78960;SDS011;68362;45.970;12.646;2023-07-29T04:04:19;5.50;;;3.58;;
78960;SDS011;68362;45.970;12.646;2023-07-29T04:05:22;4.05;;;3.28;;
78960;SDS011;68362;45.970;12.646;2023-07-29T04:06:24;4.28;;;3.50;;
78960;SDS011;68362;45.970;12.646;2023-07-29T04:07:26;3.80;;;3.25;;
78960;SDS011;68362;45.970;12.646;2023-07-29T04:08:29;5.72;;;3.45;;
78960;SDS011;68362;45.970;12.646;2023-07-29T04:09:32;5.75;;;3.08;;
78960;SDS011;68362;45.970;12.646;2023-07-29T04:10:34;5.00;;;3.00;;
78960;SDS011;68362;45.970;12.646;2023-07-29T04:12:39;5.95;;;2.65;;
78960;SDS011;68362;45.970;12.646;2023-07-29T04:13:41;3.67;;;2.95;;
78960;SDS011;68362;45.970;12.646;2023-07-29T04:14:43;3.63;;;3.15;;
78960;SDS011;68362;45.970;12.646;2023-07-29T04:15:45;4.55;;;3.40;;
78960;SDS011;68362;45.970;12.646;2023-07-29T04:16:47;3.40;;;3.10;;
78960;SDS011;68362;45.970;12.646;2023-07-29T04:17:51;5.45;;;2.95;;
78960;SDS011;68362;45.970;12.646;2023-07-29T04:18:53;6.45;;;3.05;;
78960;SDS011;68362;45.970;12.646;2023-07-29T04:19:55;3.80;;;3.13;;
78960;SDS011;68362;45.970;12.646;2023-07-29T04:20:57;3.30;;;2.92;;
78960;SDS011;68362;45.970;12.646;2023-07-29T04:21:59;2.97;;;2.63;;
78960;SDS011;68362;45.970;12.646;2023-07-29T04:23:01;4.53;;;2.97;;
78960;SDS011;68362;45.970;12.646;2023-07-29T04:24:03;3.17;;;2.80;;
78960;SDS011;68362;45.970;12.646;2023-07-29T04:25:06;6.85;;;3.15;;
78960;SDS011;68362;45.970;12.646;2023-07-29T04:26:09;3.45;;;2.70;;
78960;SDS011;68362;45.970;12.646;2023-07-29T04:27:11;3.22;;;2.92;;
78960;SDS011;68362;45.970;12.646;2023-07-29T04:28:13;4.53;;;2.85;;
78960;SDS011;68362;45.970;12.646;2023-07-29T04:29:16;4.63;;;2.83;;
78960;SDS011;68362;45.970;12.646;2023-07-29T04:30:19;5.53;;;3.55;;
78960;SDS011;68362;45.970;12.646;2023-07-29T04:31:21;4.32;;;3.17;;
78960;SDS011;68362;45.970;12.646;2023-07-29T04:32:23;8.20;;;3.47;;
78960;SDS011;68362;45.970;12.646;2023-07-29T04:33:25;3.13;;;2.83;;
78960;SDS011;68362;45.970;12.646;2023-07-29T04:34:28;3.33;;;3.03;;
78960;SDS011;68362;45.970;12.646;2023-07-29T04:35:30;6.55;;;2.88;;
78960;SDS011;68362;45.970;12.646;2023-07-29T04:36:32;4.05;;;3.40;;
78960;SDS011;68362;45.970;12.646;2023-07-29T04:38:37;3.22;;;2.75;;
78960;SDS011;68362;45.970;12.646;2023-07-29T04:39:39;4.35;;;3.28;;
78960;SDS011;68362;45.970;12.646;2023-07-29T04:40:41;4.05;;;3.35;;
78960;SDS011;68362;45.970;12.646;2023-07-29T04:41:43;4.55;;;3.28;;
78960;SDS011;68362;45.970;12.646;2023-07-29T04:42:46;5.47;;;2.70;;
78960;SDS011;68362;45.970;12.646;2023-07-29T04:43:48;3.83;;;2.88;;
78960;SDS011;68362;45.970;12.646;2023-07-29T04:45:53;4.55;;;3.30;;
78960;SDS011;68362;45.970;12.646;2023-07-29T04:46:55;4.15;;;2.80;;
78960;SDS011;68362;45.970;12.646;2023-07-29T04:47:57;5.00;;;2.60;;
78960;SDS011;68362;45.970;12.646;2023-07-29T04:49:00;4.28;;;3.40;;
78960;SDS011;68362;45.970;12.646;2023-07-29T04:50:02;4.03;;;3.22;;
78960;SDS011;68362;45.970;12.646;2023-07-29T04:51:04;4.45;;;3.40;;
78960;SDS011;68362;45.970;12.646;2023-07-29T04:52:06;4.85;;;2.83;;
78960;SDS011;68362;45.970;12.646;2023-07-29T04:53:09;5.10;;;2.80;;
78960;SDS011;68362;45.970;12.646;2023-07-29T04:54:11;3.15;;;2.65;;
78960;SDS011;68362;45.970;12.646;2023-07-29T04:55:13;5.45;;;2.83;;
78960;SDS011;68362;45.970;12.646;2023-07-29T04:56:15;3.28;;;2.75;;
78960;SDS011;68362;45.970;12.646;2023-07-29T04:57:19;3.03;;;2.60;;
78960;SDS011;68362;45.970;12.646;2023-07-29T04:58:21;3.65;;;2.88;;
78960;SDS011;68362;45.970;12.646;2023-07-29T04:59:24;3.30;;;2.50;;
78960;SDS011;68362;45.970;12.646;2023-07-29T05:00:26;8.90;;;3.40;;
78960;SDS011;68362;45.970;12.646;2023-07-29T05:01:28;3.90;;;2.25;;
78960;SDS011;68362;45.970;12.646;2023-07-29T05:02:31;2.70;;;2.33;;
78960;SDS011;68362;45.970;12.646;2023-07-29T05:03:33;3.60;;;2.65;;
78960;SDS011;68362;45.970;12.646;2023-07-29T05:04:35;3.25;;;2.75;;
78960;SDS011;68362;45.970;12.646;2023-07-29T05:05:38;3.22;;;2.35;;
78960;SDS011;68362;45.970;12.646;2023-07-29T05:06:40;3.83;;;2.75;;
78960;SDS011;68362;45.970;12.646;2023-07-29T05:07:43;3.38;;;2.47;;
78960;SDS011;68362;45.970;12.646;2023-07-29T05:08:45;3.17;;;2.28;;
78960;SDS011;68362;45.970;12.646;2023-07-29T05:09:47;3.13;;;2.40;;
78960;SDS011;68362;45.970;12.646;2023-07-29T05:10:49;2.35;;;2.15;;
78960;SDS011;68362;45.970;12.646;2023-07-29T05:11:56;3.92;;;2.42;;
78960;SDS011;68362;45.970;12.646;2023-07-29T05:12:58;5.10;;;3.38;;
78960;SDS011;68362;45.970;12.646;2023-07-29T05:14:00;2.70;;;2.33;;
78960;SDS011;68362;45.970;12.646;2023-07-29T05:15:05;2.88;;;2.22;;
78960;SDS011;68362;45.970;12.646;2023-07-29T05:16:08;4.63;;;3.25;;
78960;SDS011;68362;45.970;12.646;2023-07-29T05:17:10;2.70;;;2.13;;
78960;SDS011;68362;45.970;12.646;2023-07-29T05:18:12;3.85;;;2.42;;
78960;SDS011;68362;45.970;12.646;2023-07-29T05:19:14;3.25;;;2.35;;
78960;SDS011;68362;45.970;12.646;2023-07-29T05:20:16;3.95;;;2.25;;
78960;SDS011;68362;45.970;12.646;2023-07-29T05:21:18;2.88;;;2.13;;
78960;SDS011;68362;45.970;12.646;2023-07-29T05:22:20;3.05;;;2.47;;
78960;SDS011;68362;45.970;12.646;2023-07-29T05:23:22;3.03;;;2.30;;
78960;SDS011;68362;45.970;12.646;2023-07-29T05:24:24;2.63;;;2.33;;
78960;SDS011;68362;45.970;12.646;2023-07-29T05:25:27;3.92;;;2.00;;
78960;SDS011;68362;45.970;12.646;2023-07-29T05:26:29;2.60;;;2.30;;
78960;SDS011;68362;45.970;12.646;2023-07-29T05:27:31;5.00;;;2.30;;
78960;SDS011;68362;45.970;12.646;2023-07-29T05:28:33;3.15;;;2.55;;
78960;SDS011;68362;45.970;12.646;2023-07-29T05:29:35;3.50;;;2.28;;
78960;SDS011;68362;45.970;12.646;2023-07-29T05:30:37;3.22;;;2.42;;
78960;SDS011;68362;45.970;12.646;2023-07-29T05:31:41;2.67;;;2.20;;
78960;SDS011;68362;45.970;12.646;2023-07-29T05:32:44;2.97;;;2.30;;
78960;SDS011;68362;45.970;12.646;2023-07-29T05:33:47;4.53;;;2.35;;
78960;SDS011;68362;45.970;12.646;2023-07-29T05:34:49;2.95;;;2.42;;
78960;SDS011;68362;45.970;12.646;2023-07-29T05:35:51;2.53;;;2.20;;
78960;SDS011;68362;45.970;12.646;2023-07-29T05:36:53;3.10;;;2.15;;
78960;SDS011;68362;45.970;12.646;2023-07-29T05:37:55;3.15;;;2.22;;
78960;SDS011;68362;45.970;12.646;2023-07-29T05:38:58;3.58;;;2.47;;
78960;SDS011;68362;45.970;12.646;2023-07-29T05:40:00;3.83;;;2.22;;
78960;SDS011;68362;45.970;12.646;2023-07-29T05:41:02;3.05;;;1.92;;
78960;SDS011;68362;45.970;12.646;2023-07-29T05:42:05;3.92;;;2.40;;
78960;SDS011;68362;45.970;12.646;2023-07-29T05:43:07;3.20;;;2.05;;
78960;SDS011;68362;45.970;12.646;2023-07-29T05:44:09;2.65;;;2.10;;
78960;SDS011;68362;45.970;12.646;2023-07-29T05:45:12;2.63;;;2.25;;
78960;SDS011;68362;45.970;12.646;2023-07-29T05:46:14;3.05;;;1.77;;
78960;SDS011;68362;45.970;12.646;2023-07-29T05:47:16;3.67;;;2.13;;
78960;SDS011;68362;45.970;12.646;2023-07-29T05:48:19;2.50;;;1.73;;
78960;SDS011;68362;45.970;12.646;2023-07-29T05:49:22;2.55;;;1.85;;
78960;SDS011;68362;45.970;12.646;2023-07-29T05:50:24;5.80;;;2.60;;
78960;SDS011;68362;45.970;12.646;2023-07-29T05:51:26;3.03;;;2.72;;
78960;SDS011;68362;45.970;12.646;2023-07-29T05:52:28;2.40;;;2.08;;
78960;SDS011;68362;45.970;12.646;2023-07-29T05:53:31;2.55;;;2.10;;
78960;SDS011;68362;45.970;12.646;2023-07-29T05:54:33;2.72;;;2.40;;
78960;SDS011;68362;45.970;12.646;2023-07-29T05:55:35;4.10;;;2.30;;
78960;SDS011;68362;45.970;12.646;2023-07-29T05:56:37;3.08;;;2.50;;
78960;SDS011;68362;45.970;12.646;2023-07-29T05:58:44;4.20;;;2.10;;
78960;SDS011;68362;45.970;12.646;2023-07-29T05:59:46;3.53;;;2.20;;
78960;SDS011;68362;45.970;12.646;2023-07-29T06:00:48;4.05;;;2.17;;
78960;SDS011;68362;45.970;12.646;2023-07-29T06:01:51;6.85;;;2.08;;
78960;SDS011;68362;45.970;12.646;2023-07-29T06:02:53;3.08;;;2.10;;
78960;SDS011;68362;45.970;12.646;2023-07-29T06:03:55;2.03;;;1.83;;
78960;SDS011;68362;45.970;12.646;2023-07-29T06:04:57;4.30;;;2.10;;
78960;SDS011;68362;45.970;12.646;2023-07-29T06:05:59;3.00;;;2.30;;
78960;SDS011;68362;45.970;12.646;2023-07-29T06:07:01;2.55;;;2.10;;
78960;SDS011;68362;45.970;12.646;2023-07-29T06:08:04;3.53;;;2.05;;
78960;SDS011;68362;45.970;12.646;2023-07-29T06:09:06;4.22;;;2.75;;
78960;SDS011;68362;45.970;12.646;2023-07-29T06:10:08;3.13;;;2.20;;
78960;SDS011;68362;45.970;12.646;2023-07-29T06:11:13;2.63;;;2.38;;
78960;SDS011;68362;45.970;12.646;2023-07-29T06:12:15;4.13;;;2.58;;
78960;SDS011;68362;45.970;12.646;2023-07-29T06:13:17;3.58;;;2.70;;
78960;SDS011;68362;45.970;12.646;2023-07-29T06:14:20;3.00;;;2.70;;
78960;SDS011;68362;45.970;12.646;2023-07-29T06:15:22;3.28;;;2.47;;
78960;SDS011;68362;45.970;12.646;2023-07-29T06:16:24;4.15;;;2.70;;
78960;SDS011;68362;45.970;12.646;2023-07-29T06:17:27;4.32;;;2.55;;
78960;SDS011;68362;45.970;12.646;2023-07-29T06:18:29;3.28;;;2.38;;
78960;SDS011;68362;45.970;12.646;2023-07-29T06:19:31;3.22;;;2.30;;
78960;SDS011;68362;45.970;12.646;2023-07-29T06:20:33;4.70;;;2.40;;
78960;SDS011;68362;45.970;12.646;2023-07-29T06:21:35;3.38;;;2.67;;
78960;SDS011;68362;45.970;12.646;2023-07-29T06:22:37;2.85;;;2.30;;
78960;SDS011;68362;45.970;12.646;2023-07-29T06:23:40;3.10;;;2.20;;
78960;SDS011;68362;45.970;12.646;2023-07-29T06:24:42;4.22;;;3.33;;
78960;SDS011;68362;45.970;12.646;2023-07-29T06:25:44;2.83;;;2.42;;
78960;SDS011;68362;45.970;12.646;2023-07-29T06:26:46;4.45;;;2.55;;
78960;SDS011;68362;45.970;12.646;2023-07-29T06:27:48;4.20;;;2.40;;
78960;SDS011;68362;45.970;12.646;2023-07-29T06:28:50;2.75;;;2.00;;
78960;SDS011;68362;45.970;12.646;2023-07-29T06:29:52;3.58;;;2.58;;
78960;SDS011;68362;45.970;12.646;2023-07-29T06:30:55;2.40;;;1.90;;
78960;SDS011;68362;45.970;12.646;2023-07-29T06:31:58;4.30;;;2.30;;